sensor_id;sensor_type;location;lat;lon;timestamp;temperature;humidity
2623;DHT22;1321;48.690;9.022;2023-06-10T00:00:43;20.90;99.90
2623;DHT22;1321;48.690;9.022;2023-06-10T00:03:12;20.90;99.90
2623;DHT22;1321;48.690;9.022;2023-06-10T00:05:41;20.80;99.90
2623;DHT22;1321;48.690;9.022;2023-06-10T00:08:11;20.80;99.90
2623;DHT22;1321;48.690;9.022;2023-06-10T00:10:39;20.80;99.90
2623;DHT22;1321;48.690;9.022;2023-06-10T00:13:07;20.80;99.90
2623;DHT22;1321;48.690;9.022;2023-06-10T00:15:35;20.80;99.90
2623;DHT22;1321;48.690;9.022;2023-06-10T00:18:04;20.80;99.90
2623;DHT22;1321;48.690;9.022;2023-06-10T00:20:32;20.80;99.90
2623;DHT22;1321;48.690;9.022;2023-06-10T00:23:02;20.80;99.90
2623;DHT22;1321;48.690;9.022;2023-06-10T00:25:34;20.70;99.90
2623;DHT22;1321;48.690;9.022;2023-06-10T00:28:03;20.70;99.90
2623;DHT22;1321;48.690;9.022;2023-06-10T00:30:31;20.70;99.90
2623;DHT22;1321;48.690;9.022;2023-06-10T00:32:59;20.60;99.90
2623;DHT22;1321;48.690;9.022;2023-06-10T00:35:28;20.60;99.90
2623;DHT22;1321;48.690;9.022;2023-06-10T00:37:56;20.60;99.90
2623;DHT22;1321;48.690;9.022;2023-06-10T00:40:24;20.70;99.90
2623;DHT22;1321;48.690;9.022;2023-06-10T00:42:54;20.70;99.90
2623;DHT22;1321;48.690;9.022;2023-06-10T00:45:22;20.60;99.90
2623;DHT22;1321;48.690;9.022;2023-06-10T00:47:51;20.60;99.90
2623;DHT22;1321;48.690;9.022;2023-06-10T00:50:19;20.60;99.90
2623;DHT22;1321;48.690;9.022;2023-06-10T00:52:48;20.60;99.90
2623;DHT22;1321;48.690;9.022;2023-06-10T00:55:20;20.60;99.90
2623;DHT22;1321;48.690;9.022;2023-06-10T00:57:51;20.50;99.90
2623;DHT22;1321;48.690;9.022;2023-06-10T01:00:20;20.50;99.90
2623;DHT22;1321;48.690;9.022;2023-06-10T01:02:48;20.50;99.90
2623;DHT22;1321;48.690;9.022;2023-06-10T01:05:19;20.50;99.90
2623;DHT22;1321;48.690;9.022;2023-06-10T01:07:52;20.50;99.90
2623;DHT22;1321;48.690;9.022;2023-06-10T01:10:27;20.50;99.90
2623;DHT22;1321;48.690;9.022;2023-06-10T01:12:59;20.50;99.90
2623;DHT22;1321;48.690;9.022;2023-06-10T01:15:31;20.50;99.90
2623;DHT22;1321;48.690;9.022;2023-06-10T01:18:00;20.50;99.90
2623;DHT22;1321;48.690;9.022;2023-06-10T01:20:30;20.40;99.90
2623;DHT22;1321;48.690;9.022;2023-06-10T01:23:01;20.40;99.90
2623;DHT22;1321;48.690;9.022;2023-06-10T01:25:31;20.30;99.90
2623;DHT22;1321;48.690;9.022;2023-06-10T01:28:07;20.30;99.90
2623;DHT22;1321;48.690;9.022;2023-06-10T01:30:42;20.30;99.90
2623;DHT22;1321;48.690;9.022;2023-06-10T01:33:13;20.30;99.90
2623;DHT22;1321;48.690;9.022;2023-06-10T01:35:45;20.30;99.90
2623;DHT22;1321;48.690;9.022;2023-06-10T01:38:17;20.20;99.90
2623;DHT22;1321;48.690;9.022;2023-06-10T01:40:48;20.20;99.90
2623;DHT22;1321;48.690;9.022;2023-06-10T01:43:17;20.20;99.90
2623;DHT22;1321;48.690;9.022;2023-06-10T01:45:45;20.10;99.90
2623;DHT22;1321;48.690;9.022;2023-06-10T01:48:13;20.10;99.90
2623;DHT22;1321;48.690;9.022;2023-06-10T01:50:42;20.10;99.90
2623;DHT22;1321;48.690;9.022;2023-06-10T01:53:11;19.90;99.90
2623;DHT22;1321;48.690;9.022;2023-06-10T01:55:41;19.90;99.90
2623;DHT22;1321;48.690;9.022;2023-06-10T01:58:09;19.80;99.90
2623;DHT22;1321;48.690;9.022;2023-06-10T02:00:37;19.80;99.90
2623;DHT22;1321;48.690;9.022;2023-06-10T02:03:05;19.70;99.90
2623;DHT22;1321;48.690;9.022;2023-06-10T02:05:33;19.60;99.90
2623;DHT22;1321;48.690;9.022;2023-06-10T02:08:01;19.50;99.90
2623;DHT22;1321;48.690;9.022;2023-06-10T02:10:29;19.50;99.90
2623;DHT22;1321;48.690;9.022;2023-06-10T02:12:59;19.50;99.90
2623;DHT22;1321;48.690;9.022;2023-06-10T02:15:27;19.40;99.90
2623;DHT22;1321;48.690;9.022;2023-06-10T02:17:56;19.40;99.90
2623;DHT22;1321;48.690;9.022;2023-06-10T02:20:25;19.20;99.90
2623;DHT22;1321;48.690;9.022;2023-06-10T02:22:53;19.20;99.90
2623;DHT22;1321;48.690;9.022;2023-06-10T02:25:21;19.20;99.90
2623;DHT22;1321;48.690;9.022;2023-06-10T02:27:49;19.20;99.90
2623;DHT22;1321;48.690;9.022;2023-06-10T02:30:18;19.20;99.90
2623;DHT22;1321;48.690;9.022;2023-06-10T02:32:47;19.20;99.90
2623;DHT22;1321;48.690;9.022;2023-06-10T02:35:15;19.20;99.90
2623;DHT22;1321;48.690;9.022;2023-06-10T02:37:44;19.10;99.90
2623;DHT22;1321;48.690;9.022;2023-06-10T02:40:12;19.00;99.90
2623;DHT22;1321;48.690;9.022;2023-06-10T02:42:40;19.00;99.90
2623;DHT22;1321;48.690;9.022;2023-06-10T02:45:08;19.00;99.90
2623;DHT22;1321;48.690;9.022;2023-06-10T02:47:39;18.90;99.90
2623;DHT22;1321;48.690;9.022;2023-06-10T02:50:08;18.90;99.90
2623;DHT22;1321;48.690;9.022;2023-06-10T02:52:36;18.90;99.90
2623;DHT22;1321;48.690;9.022;2023-06-10T02:55:04;18.70;99.90
2623;DHT22;1321;48.690;9.022;2023-06-10T02:57:33;18.70;99.90
2623;DHT22;1321;48.690;9.022;2023-06-10T03:00:02;18.70;99.90
2623;DHT22;1321;48.690;9.022;2023-06-10T03:02:36;18.60;99.90
2623;DHT22;1321;48.690;9.022;2023-06-10T03:05:07;18.60;99.90
2623;DHT22;1321;48.690;9.022;2023-06-10T03:07:39;18.50;99.90
2623;DHT22;1321;48.690;9.022;2023-06-10T03:10:08;18.60;99.90
2623;DHT22;1321;48.690;9.022;2023-06-10T03:12:36;18.60;99.90
2623;DHT22;1321;48.690;9.022;2023-06-10T03:15:05;18.60;99.90
2623;DHT22;1321;48.690;9.022;2023-06-10T03:17:34;18.60;99.90
2623;DHT22;1321;48.690;9.022;2023-06-10T03:20:02;18.60;99.90
2623;DHT22;1321;48.690;9.022;2023-06-10T03:22:33;18.50;99.90
2623;DHT22;1321;48.690;9.022;2023-06-10T03:25:01;18.50;99.90
2623;DHT22;1321;48.690;9.022;2023-06-10T03:27:30;18.40;99.90
2623;DHT22;1321;48.690;9.022;2023-06-10T03:29:58;18.40;99.90
2623;DHT22;1321;48.690;9.022;2023-06-10T03:32:26;18.50;99.90
2623;DHT22;1321;48.690;9.022;2023-06-10T03:34:54;18.50;99.90
2623;DHT22;1321;48.690;9.022;2023-06-10T03:37:24;18.50;99.90
2623;DHT22;1321;48.690;9.022;2023-06-10T03:39:53;18.50;99.90
2623;DHT22;1321;48.690;9.022;2023-06-10T03:42:22;18.40;99.90
2623;DHT22;1321;48.690;9.022;2023-06-10T03:44:50;18.50;99.90
2623;DHT22;1321;48.690;9.022;2023-06-10T03:47:18;18.40;99.90
2623;DHT22;1321;48.690;9.022;2023-06-10T03:49:47;18.40;99.90
2623;DHT22;1321;48.690;9.022;2023-06-10T03:52:15;18.30;99.90
2623;DHT22;1321;48.690;9.022;2023-06-10T03:54:43;18.30;99.90
2623;DHT22;1321;48.690;9.022;2023-06-10T03:57:13;18.30;99.90
2623;DHT22;1321;48.690;9.022;2023-06-10T03:59:41;18.20;99.90
2623;DHT22;1321;48.690;9.022;2023-06-10T04:02:10;18.20;99.90
2623;DHT22;1321;48.690;9.022;2023-06-10T04:04:38;18.10;99.90
2623;DHT22;1321;48.690;9.022;2023-06-10T04:07:07;18.10;99.90
2623;DHT22;1321;48.690;9.022;2023-06-10T04:09:36;18.10;99.90
2623;DHT22;1321;48.690;9.022;2023-06-10T04:12:05;18.10;99.90
2623;DHT22;1321;48.690;9.022;2023-06-10T04:14:36;18.10;99.90
2623;DHT22;1321;48.690;9.022;2023-06-10T04:17:05;18.20;99.90
2623;DHT22;1321;48.690;9.022;2023-06-10T04:19:34;18.20;99.90
2623;DHT22;1321;48.690;9.022;2023-06-10T04:22:02;18.20;99.90
2623;DHT22;1321;48.690;9.022;2023-06-10T04:24:31;18.30;99.90
2623;DHT22;1321;48.690;9.022;2023-06-10T04:27:00;18.40;99.90
2623;DHT22;1321;48.690;9.022;2023-06-10T04:29:28;18.40;99.90
2623;DHT22;1321;48.690;9.022;2023-06-10T04:31:57;18.40;99.90
2623;DHT22;1321;48.690;9.022;2023-06-10T04:34:26;18.50;99.90
2623;DHT22;1321;48.690;9.022;2023-06-10T04:36:54;18.60;99.90
2623;DHT22;1321;48.690;9.022;2023-06-10T04:39:22;18.60;99.90
2623;DHT22;1321;48.690;9.022;2023-06-10T04:41:51;18.60;99.90
2623;DHT22;1321;48.690;9.022;2023-06-10T04:44:19;18.60;99.90
2623;DHT22;1321;48.690;9.022;2023-06-10T04:46:48;18.70;99.90
2623;DHT22;1321;48.690;9.022;2023-06-10T04:49:17;18.70;99.90
2623;DHT22;1321;48.690;9.022;2023-06-10T04:51:45;18.70;99.90
2623;DHT22;1321;48.690;9.022;2023-06-10T04:54:14;18.70;99.90
2623;DHT22;1321;48.690;9.022;2023-06-10T04:56:42;18.80;99.90
2623;DHT22;1321;48.690;9.022;2023-06-10T04:59:11;18.90;99.90
2623;DHT22;1321;48.690;9.022;2023-06-10T05:01:39;18.90;99.90
2623;DHT22;1321;48.690;9.022;2023-06-10T05:04:07;18.90;99.90
2623;DHT22;1321;48.690;9.022;2023-06-10T05:06:37;18.90;99.90
2623;DHT22;1321;48.690;9.022;2023-06-10T05:09:05;18.90;99.90
2623;DHT22;1321;48.690;9.022;2023-06-10T05:11:33;18.80;99.90
2623;DHT22;1321;48.690;9.022;2023-06-10T05:14:01;18.90;99.90
2623;DHT22;1321;48.690;9.022;2023-06-10T05:16:29;19.00;99.90
2623;DHT22;1321;48.690;9.022;2023-06-10T05:18:57;19.00;99.90
2623;DHT22;1321;48.690;9.022;2023-06-10T05:21:26;19.00;99.90
2623;DHT22;1321;48.690;9.022;2023-06-10T05:23:55;19.10;99.90
2623;DHT22;1321;48.690;9.022;2023-06-10T05:26:24;19.20;99.90
2623;DHT22;1321;48.690;9.022;2023-06-10T05:28:52;19.20;99.90
2623;DHT22;1321;48.690;9.022;2023-06-10T05:31:20;19.30;99.90
2623;DHT22;1321;48.690;9.022;2023-06-10T05:33:49;19.40;99.90
2623;DHT22;1321;48.690;9.022;2023-06-10T05:36:17;19.40;99.90
2623;DHT22;1321;48.690;9.022;2023-06-10T05:38:45;19.40;99.90
2623;DHT22;1321;48.690;9.022;2023-06-10T05:41:15;19.50;99.90
2623;DHT22;1321;48.690;9.022;2023-06-10T05:43:44;19.50;99.90
2623;DHT22;1321;48.690;9.022;2023-06-10T05:46:12;19.60;99.90
2623;DHT22;1321;48.690;9.022;2023-06-10T05:48:40;19.60;99.90
2623;DHT22;1321;48.690;9.022;2023-06-10T05:51:09;19.70;99.90
2623;DHT22;1321;48.690;9.022;2023-06-10T05:53:37;19.70;99.90
2623;DHT22;1321;48.690;9.022;2023-06-10T05:56:06;19.70;99.90
2623;DHT22;1321;48.690;9.022;2023-06-10T05:58:36;19.80;99.90
2623;DHT22;1321;48.690;9.022;2023-06-10T06:01:04;19.80;99.90
2623;DHT22;1321;48.690;9.022;2023-06-10T06:03:32;19.90;99.90
2623;DHT22;1321;48.690;9.022;2023-06-10T06:06:03;19.90;99.90
2623;DHT22;1321;48.690;9.022;2023-06-10T06:08:31;20.00;99.90
2623;DHT22;1321;48.690;9.022;2023-06-10T06:10:59;20.00;99.90
2623;DHT22;1321;48.690;9.022;2023-06-10T06:13:27;20.00;99.90
2623;DHT22;1321;48.690;9.022;2023-06-10T06:15:57;20.10;99.90
2623;DHT22;1321;48.690;9.022;2023-06-10T06:18:25;20.10;99.90
2623;DHT22;1321;48.690;9.022;2023-06-10T06:20:53;20.20;99.90
2623;DHT22;1321;48.690;9.022;2023-06-10T06:23:21;20.20;99.90
2623;DHT22;1321;48.690;9.022;2023-06-10T06:25:49;20.30;99.90
2623;DHT22;1321;48.690;9.022;2023-06-10T06:28:17;20.20;99.90
2623;DHT22;1321;48.690;9.022;2023-06-10T06:30:47;20.20;99.90
2623;DHT22;1321;48.690;9.022;2023-06-10T06:33:17;20.30;99.90
2623;DHT22;1321;48.690;9.022;2023-06-10T06:35:45;20.40;99.90
2623;DHT22;1321;48.690;9.022;2023-06-10T06:38:13;20.40;99.90
2623;DHT22;1321;48.690;9.022;2023-06-10T06:40:42;20.50;99.90
2623;DHT22;1321;48.690;9.022;2023-06-10T06:43:10;20.50;99.90
2623;DHT22;1321;48.690;9.022;2023-06-10T06:45:38;20.60;99.90
2623;DHT22;1321;48.690;9.022;2023-06-10T06:48:06;20.70;99.90
2623;DHT22;1321;48.690;9.022;2023-06-10T06:50:36;20.80;99.90
2623;DHT22;1321;48.690;9.022;2023-06-10T06:53:04;20.80;99.90
2623;DHT22;1321;48.690;9.022;2023-06-10T06:55:32;20.90;99.90
2623;DHT22;1321;48.690;9.022;2023-06-10T06:58:00;20.90;99.90
2623;DHT22;1321;48.690;9.022;2023-06-10T07:00:31;21.00;99.90
2623;DHT22;1321;48.690;9.022;2023-06-10T07:02:59;21.10;99.90
2623;DHT22;1321;48.690;9.022;2023-06-10T07:05:27;21.10;99.90
2623;DHT22;1321;48.690;9.022;2023-06-10T07:07:58;21.20;99.90
2623;DHT22;1321;48.690;9.022;2023-06-10T07:10:26;21.20;99.90
2623;DHT22;1321;48.690;9.022;2023-06-10T07:12:54;21.30;99.90
2623;DHT22;1321;48.690;9.022;2023-06-10T07:15:23;21.40;99.90
2623;DHT22;1321;48.690;9.022;2023-06-10T07:17:51;21.40;99.90
2623;DHT22;1321;48.690;9.022;2023-06-10T07:20:19;21.40;99.90
2623;DHT22;1321;48.690;9.022;2023-06-10T07:22:47;21.50;99.90
2623;DHT22;1321;48.690;9.022;2023-06-10T07:25:17;21.60;99.90
2623;DHT22;1321;48.690;9.022;2023-06-10T07:27:45;21.60;99.90
2623;DHT22;1321;48.690;9.022;2023-06-10T07:30:13;21.60;99.90
2623;DHT22;1321;48.690;9.022;2023-06-10T07:32:41;21.70;99.90
2623;DHT22;1321;48.690;9.022;2023-06-10T07:35:10;21.70;99.90
2623;DHT22;1321;48.690;9.022;2023-06-10T07:37:39;21.70;99.90
2623;DHT22;1321;48.690;9.022;2023-06-10T07:40:08;21.80;99.90
2623;DHT22;1321;48.690;9.022;2023-06-10T07:42:37;21.80;99.90
2623;DHT22;1321;48.690;9.022;2023-06-10T07:45:07;21.90;99.90
2623;DHT22;1321;48.690;9.022;2023-06-10T07:47:35;22.00;99.90
2623;DHT22;1321;48.690;9.022;2023-06-10T07:50:04;22.10;99.90
2623;DHT22;1321;48.690;9.022;2023-06-10T07:52:32;22.10;99.90
2623;DHT22;1321;48.690;9.022;2023-06-10T07:55:01;22.20;99.90
2623;DHT22;1321;48.690;9.022;2023-06-10T07:57:29;22.20;99.90
2623;DHT22;1321;48.690;9.022;2023-06-10T08:03:35;22.30;99.90
2623;DHT22;1321;48.690;9.022;2023-06-10T08:06:06;22.30;99.90
2623;DHT22;1321;48.690;9.022;2023-06-10T08:08:58;22.30;99.90
2623;DHT22;1321;48.690;9.022;2023-06-10T08:12:00;22.40;99.90
2623;DHT22;1321;48.690;9.022;2023-06-10T08:14:31;22.50;99.90
2623;DHT22;1321;48.690;9.022;2023-06-10T08:17:10;22.50;99.90
2623;DHT22;1321;48.690;9.022;2023-06-10T08:19:40;22.50;99.90
2623;DHT22;1321;48.690;9.022;2023-06-10T08:22:08;22.50;99.90
2623;DHT22;1321;48.690;9.022;2023-06-10T08:24:37;22.60;99.90
2623;DHT22;1321;48.690;9.022;2023-06-10T08:27:05;22.60;99.90
2623;DHT22;1321;48.690;9.022;2023-06-10T08:29:34;22.60;99.90
2623;DHT22;1321;48.690;9.022;2023-06-10T08:32:02;22.60;99.90
2623;DHT22;1321;48.690;9.022;2023-06-10T08:34:33;22.70;99.90
2623;DHT22;1321;48.690;9.022;2023-06-10T08:37:04;22.80;99.90
2623;DHT22;1321;48.690;9.022;2023-06-10T08:39:32;22.80;99.90
2623;DHT22;1321;48.690;9.022;2023-06-10T08:42:07;22.80;99.90
2623;DHT22;1321;48.690;9.022;2023-06-10T08:44:38;22.90;99.90
2623;DHT22;1321;48.690;9.022;2023-06-10T08:47:13;22.90;99.90
2623;DHT22;1321;48.690;9.022;2023-06-10T08:49:43;23.00;99.90
2623;DHT22;1321;48.690;9.022;2023-06-10T08:52:16;23.00;99.90
2623;DHT22;1321;48.690;9.022;2023-06-10T08:54:51;23.10;99.90
2623;DHT22;1321;48.690;9.022;2023-06-10T08:57:20;23.10;99.90
2623;DHT22;1321;48.690;9.022;2023-06-10T08:59:49;23.10;99.90
2623;DHT22;1321;48.690;9.022;2023-06-10T09:02:17;23.10;99.90
2623;DHT22;1321;48.690;9.022;2023-06-10T09:04:52;23.10;99.90
2623;DHT22;1321;48.690;9.022;2023-06-10T09:07:39;23.10;99.90
2623;DHT22;1321;48.690;9.022;2023-06-10T09:10:08;23.20;99.90
2623;DHT22;1321;48.690;9.022;2023-06-10T09:12:37;23.20;99.90
2623;DHT22;1321;48.690;9.022;2023-06-10T09:15:07;23.20;99.90
2623;DHT22;1321;48.690;9.022;2023-06-10T09:17:35;23.20;99.90
2623;DHT22;1321;48.690;9.022;2023-06-10T09:20:06;23.30;99.90
2623;DHT22;1321;48.690;9.022;2023-06-10T09:22:38;23.30;99.90
2623;DHT22;1321;48.690;9.022;2023-06-10T09:25:08;23.30;99.90
2623;DHT22;1321;48.690;9.022;2023-06-10T09:27:44;23.40;99.90
2623;DHT22;1321;48.690;9.022;2023-06-10T09:30:25;23.40;99.90
2623;DHT22;1321;48.690;9.022;2023-06-10T09:32:54;23.40;99.90
2623;DHT22;1321;48.690;9.022;2023-06-10T09:35:26;23.40;99.90
2623;DHT22;1321;48.690;9.022;2023-06-10T09:38:05;23.60;99.90
2623;DHT22;1321;48.690;9.022;2023-06-10T09:40:48;23.70;99.90
2623;DHT22;1321;48.690;9.022;2023-06-10T09:43:19;23.80;99.90
2623;DHT22;1321;48.690;9.022;2023-06-10T09:45:57;23.80;99.90
2623;DHT22;1321;48.690;9.022;2023-06-10T09:48:34;23.80;99.90
2623;DHT22;1321;48.690;9.022;2023-06-10T09:51:08;23.80;99.90
2623;DHT22;1321;48.690;9.022;2023-06-10T09:53:38;23.80;99.90
2623;DHT22;1321;48.690;9.022;2023-06-10T09:56:07;23.80;99.90
2623;DHT22;1321;48.690;9.022;2023-06-10T09:58:40;23.80;99.90
2623;DHT22;1321;48.690;9.022;2023-06-10T10:01:16;23.80;99.90
2623;DHT22;1321;48.690;9.022;2023-06-10T10:04:25;23.90;99.90
2623;DHT22;1321;48.690;9.022;2023-06-10T10:06:58;24.00;99.90
2623;DHT22;1321;48.690;9.022;2023-06-10T10:09:29;24.10;99.90
2623;DHT22;1321;48.690;9.022;2023-06-10T10:11:58;24.10;99.90
2623;DHT22;1321;48.690;9.022;2023-06-10T10:14:28;24.10;99.90
2623;DHT22;1321;48.690;9.022;2023-06-10T10:17:13;24.00;99.90
2623;DHT22;1321;48.690;9.022;2023-06-10T10:19:46;24.00;99.90
2623;DHT22;1321;48.690;9.022;2023-06-10T10:22:37;24.20;99.90
2623;DHT22;1321;48.690;9.022;2023-06-10T10:25:11;24.20;99.90
2623;DHT22;1321;48.690;9.022;2023-06-10T10:27:46;24.20;99.90
2623;DHT22;1321;48.690;9.022;2023-06-10T10:30:17;24.20;99.90
2623;DHT22;1321;48.690;9.022;2023-06-10T10:32:52;24.10;99.90
2623;DHT22;1321;48.690;9.022;2023-06-10T10:35:25;24.10;99.90
2623;DHT22;1321;48.690;9.022;2023-06-10T10:37:54;24.10;99.90
2623;DHT22;1321;48.690;9.022;2023-06-10T10:40:25;24.20;99.90
2623;DHT22;1321;48.690;9.022;2023-06-10T10:43:00;24.10;99.90
2623;DHT22;1321;48.690;9.022;2023-06-10T10:45:29;24.10;99.90
2623;DHT22;1321;48.690;9.022;2023-06-10T10:47:57;24.10;99.90
2623;DHT22;1321;48.690;9.022;2023-06-10T10:50:28;24.10;99.90
2623;DHT22;1321;48.690;9.022;2023-06-10T10:53:00;24.10;99.90
2623;DHT22;1321;48.690;9.022;2023-06-10T10:55:34;24.00;99.90
2623;DHT22;1321;48.690;9.022;2023-06-10T10:58:06;24.10;99.90
2623;DHT22;1321;48.690;9.022;2023-06-10T11:00:53;24.20;99.90
2623;DHT22;1321;48.690;9.022;2023-06-10T11:03:21;24.30;99.90
2623;DHT22;1321;48.690;9.022;2023-06-10T11:05:50;24.30;99.90
2623;DHT22;1321;48.690;9.022;2023-06-10T11:08:49;24.30;99.90
2623;DHT22;1321;48.690;9.022;2023-06-10T11:11:20;24.40;99.90
2623;DHT22;1321;48.690;9.022;2023-06-10T11:13:59;24.30;99.90
2623;DHT22;1321;48.690;9.022;2023-06-10T11:16:41;24.30;99.90
2623;DHT22;1321;48.690;9.022;2023-06-10T11:19:31;24.40;99.90
2623;DHT22;1321;48.690;9.022;2023-06-10T11:22:01;24.50;99.90
2623;DHT22;1321;48.690;9.022;2023-06-10T11:24:29;24.50;99.90
2623;DHT22;1321;48.690;9.022;2023-06-10T11:27:18;24.60;99.90
2623;DHT22;1321;48.690;9.022;2023-06-10T11:29:57;24.50;99.90
2623;DHT22;1321;48.690;9.022;2023-06-10T11:32:29;24.50;99.90
2623;DHT22;1321;48.690;9.022;2023-06-10T11:34:59;24.50;99.90
2623;DHT22;1321;48.690;9.022;2023-06-10T11:37:27;24.50;99.90
2623;DHT22;1321;48.690;9.022;2023-06-10T11:39:56;24.50;99.90
2623;DHT22;1321;48.690;9.022;2023-06-10T11:42:26;24.50;99.90
2623;DHT22;1321;48.690;9.022;2023-06-10T11:44:54;24.60;99.90
2623;DHT22;1321;48.690;9.022;2023-06-10T11:47:22;24.60;99.90
2623;DHT22;1321;48.690;9.022;2023-06-10T11:49:56;24.50;99.90
2623;DHT22;1321;48.690;9.022;2023-06-10T11:52:26;24.50;99.90
2623;DHT22;1321;48.690;9.022;2023-06-10T11:54:55;24.50;99.90
2623;DHT22;1321;48.690;9.022;2023-06-10T11:57:23;24.50;99.90
2623;DHT22;1321;48.690;9.022;2023-06-10T11:59:53;24.50;99.90
2623;DHT22;1321;48.690;9.022;2023-06-10T12:02:21;24.50;99.90
2623;DHT22;1321;48.690;9.022;2023-06-10T12:04:49;24.60;99.90
2623;DHT22;1321;48.690;9.022;2023-06-10T12:07:18;24.60;99.90
2623;DHT22;1321;48.690;9.022;2023-06-10T12:09:58;24.70;99.90
2623;DHT22;1321;48.690;9.022;2023-06-10T12:12:44;24.70;99.90
2623;DHT22;1321;48.690;9.022;2023-06-10T12:15:23;24.60;99.90
2623;DHT22;1321;48.690;9.022;2023-06-10T12:17:51;24.70;99.90
2623;DHT22;1321;48.690;9.022;2023-06-10T12:20:27;24.70;99.90
2623;DHT22;1321;48.690;9.022;2023-06-10T12:22:55;24.70;99.90
2623;DHT22;1321;48.690;9.022;2023-06-10T12:25:27;24.80;99.90
2623;DHT22;1321;48.690;9.022;2023-06-10T12:27:57;24.80;99.90
2623;DHT22;1321;48.690;9.022;2023-06-10T12:30:27;24.80;99.90
2623;DHT22;1321;48.690;9.022;2023-06-10T12:32:56;24.80;99.90
2623;DHT22;1321;48.690;9.022;2023-06-10T12:35:25;24.80;99.90
2623;DHT22;1321;48.690;9.022;2023-06-10T12:37:56;24.80;99.90
2623;DHT22;1321;48.690;9.022;2023-06-10T12:40:28;24.90;99.90
2623;DHT22;1321;48.690;9.022;2023-06-10T12:42:59;24.90;99.90
2623;DHT22;1321;48.690;9.022;2023-06-10T12:45:29;24.80;99.90
2623;DHT22;1321;48.690;9.022;2023-06-10T12:48:05;24.80;99.90
2623;DHT22;1321;48.690;9.022;2023-06-10T12:50:36;24.80;99.90
2623;DHT22;1321;48.690;9.022;2023-06-10T12:53:06;24.80;99.90
2623;DHT22;1321;48.690;9.022;2023-06-10T12:55:34;24.80;99.90
2623;DHT22;1321;48.690;9.022;2023-06-10T12:58:03;24.80;99.90
2623;DHT22;1321;48.690;9.022;2023-06-10T13:00:32;24.90;99.90
2623;DHT22;1321;48.690;9.022;2023-06-10T13:03:02;24.90;99.90
2623;DHT22;1321;48.690;9.022;2023-06-10T13:05:33;25.00;99.90
2623;DHT22;1321;48.690;9.022;2023-06-10T13:08:02;25.10;99.90
2623;DHT22;1321;48.690;9.022;2023-06-10T13:10:30;25.20;99.90
2623;DHT22;1321;48.690;9.022;2023-06-10T13:12:59;25.20;99.90
2623;DHT22;1321;48.690;9.022;2023-06-10T13:15:27;25.10;99.90
2623;DHT22;1321;48.690;9.022;2023-06-10T13:17:57;25.10;99.90
2623;DHT22;1321;48.690;9.022;2023-06-10T13:20:25;25.00;99.90
2623;DHT22;1321;48.690;9.022;2023-06-10T13:22:53;25.10;99.90
2623;DHT22;1321;48.690;9.022;2023-06-10T13:25:21;25.00;99.90
2623;DHT22;1321;48.690;9.022;2023-06-10T13:27:49;25.00;99.90
2623;DHT22;1321;48.690;9.022;2023-06-10T13:30:18;25.00;99.90
2623;DHT22;1321;48.690;9.022;2023-06-10T13:32:46;25.00;99.90
2623;DHT22;1321;48.690;9.022;2023-06-10T13:35:15;24.90;99.90
2623;DHT22;1321;48.690;9.022;2023-06-10T13:37:44;24.90;99.90
2623;DHT22;1321;48.690;9.022;2023-06-10T13:40:12;24.90;99.90
2623;DHT22;1321;48.690;9.022;2023-06-10T13:42:40;25.00;99.90
2623;DHT22;1321;48.690;9.022;2023-06-10T13:45:09;25.10;99.90
2623;DHT22;1321;48.690;9.022;2023-06-10T13:47:37;25.10;99.90
2623;DHT22;1321;48.690;9.022;2023-06-10T13:50:07;25.10;99.90
2623;DHT22;1321;48.690;9.022;2023-06-10T13:52:37;25.10;99.90
2623;DHT22;1321;48.690;9.022;2023-06-10T13:55:05;25.10;99.90
2623;DHT22;1321;48.690;9.022;2023-06-10T13:57:34;25.20;99.90
2623;DHT22;1321;48.690;9.022;2023-06-10T14:00:03;25.30;99.90
2623;DHT22;1321;48.690;9.022;2023-06-10T14:02:32;25.30;99.90
2623;DHT22;1321;48.690;9.022;2023-06-10T14:05:00;25.30;99.90
2623;DHT22;1321;48.690;9.022;2023-06-10T14:07:29;25.20;99.90
2623;DHT22;1321;48.690;9.022;2023-06-10T14:09:59;25.20;99.90
2623;DHT22;1321;48.690;9.022;2023-06-10T14:12:27;25.20;99.90
2623;DHT22;1321;48.690;9.022;2023-06-10T14:14:55;25.10;99.90
2623;DHT22;1321;48.690;9.022;2023-06-10T14:17:23;25.10;99.90
2623;DHT22;1321;48.690;9.022;2023-06-10T14:19:51;25.10;99.90
2623;DHT22;1321;48.690;9.022;2023-06-10T14:22:19;25.10;99.90
2623;DHT22;1321;48.690;9.022;2023-06-10T14:24:48;25.00;99.90
2623;DHT22;1321;48.690;9.022;2023-06-10T14:27:18;25.00;99.90
2623;DHT22;1321;48.690;9.022;2023-06-10T14:29:46;25.00;99.90
2623;DHT22;1321;48.690;9.022;2023-06-10T14:32:14;25.00;99.90
2623;DHT22;1321;48.690;9.022;2023-06-10T14:34:46;25.10;99.90
2623;DHT22;1321;48.690;9.022;2023-06-10T14:37:14;25.20;99.90
2623;DHT22;1321;48.690;9.022;2023-06-10T14:39:42;25.20;99.90
2623;DHT22;1321;48.690;9.022;2023-06-10T14:42:10;25.20;99.90
2623;DHT22;1321;48.690;9.022;2023-06-10T14:44:40;25.20;99.90
2623;DHT22;1321;48.690;9.022;2023-06-10T14:47:08;25.30;99.90
2623;DHT22;1321;48.690;9.022;2023-06-10T14:49:36;25.30;99.90
2623;DHT22;1321;48.690;9.022;2023-06-10T14:52:04;25.40;99.90
2623;DHT22;1321;48.690;9.022;2023-06-10T14:54:32;25.40;99.90
2623;DHT22;1321;48.690;9.022;2023-06-10T14:57:01;25.30;99.90
2623;DHT22;1321;48.690;9.022;2023-06-10T14:59:29;25.30;99.90
2623;DHT22;1321;48.690;9.022;2023-06-10T15:01:58;25.40;99.90
2623;DHT22;1321;48.690;9.022;2023-06-10T15:04:27;25.40;99.90
2623;DHT22;1321;48.690;9.022;2023-06-10T15:06:56;25.40;99.90
2623;DHT22;1321;48.690;9.022;2023-06-10T15:09:24;25.40;99.90
2623;DHT22;1321;48.690;9.022;2023-06-10T15:11:52;25.50;99.90
2623;DHT22;1321;48.690;9.022;2023-06-10T15:14:20;25.50;99.90
2623;DHT22;1321;48.690;9.022;2023-06-10T15:16:48;25.50;99.90
2623;DHT22;1321;48.690;9.022;2023-06-10T15:19:18;25.60;99.90
2623;DHT22;1321;48.690;9.022;2023-06-10T15:21:46;25.50;99.90
2623;DHT22;1321;48.690;9.022;2023-06-10T15:24:15;25.40;99.90
2623;DHT22;1321;48.690;9.022;2023-06-10T15:26:43;25.40;99.90
2623;DHT22;1321;48.690;9.022;2023-06-10T15:29:11;25.40;99.90
2623;DHT22;1321;48.690;9.022;2023-06-10T15:35:44;25.30;99.90
2623;DHT22;1321;48.690;9.022;2023-06-10T15:38:12;25.20;99.90
2623;DHT22;1321;48.690;9.022;2023-06-10T15:40:41;25.20;99.90
2623;DHT22;1321;48.690;9.022;2023-06-10T15:46:29;25.20;99.90
2623;DHT22;1321;48.690;9.022;2023-06-10T15:49:27;25.20;99.90
2623;DHT22;1321;48.690;9.022;2023-06-10T15:53:10;25.20;99.90
2623;DHT22;1321;48.690;9.022;2023-06-10T15:55:45;25.20;99.90
2623;DHT22;1321;48.690;9.022;2023-06-10T15:59:13;25.20;99.90
2623;DHT22;1321;48.690;9.022;2023-06-10T16:05:28;25.40;99.90
2623;DHT22;1321;48.690;9.022;2023-06-10T16:07:59;25.30;99.90
2623;DHT22;1321;48.690;9.022;2023-06-10T16:10:56;25.30;99.90
2623;DHT22;1321;48.690;9.022;2023-06-10T16:13:55;25.30;99.90
2623;DHT22;1321;48.690;9.022;2023-06-10T16:17:11;25.30;99.90
2623;DHT22;1321;48.690;9.022;2023-06-10T16:19:39;25.30;99.90
2623;DHT22;1321;48.690;9.022;2023-06-10T16:22:07;25.30;99.90
2623;DHT22;1321;48.690;9.022;2023-06-10T16:24:45;25.20;99.90
2623;DHT22;1321;48.690;9.022;2023-06-10T16:27:25;25.30;99.90
2623;DHT22;1321;48.690;9.022;2023-06-10T16:29:58;25.30;99.90
2623;DHT22;1321;48.690;9.022;2023-06-10T16:32:33;25.30;99.90
2623;DHT22;1321;48.690;9.022;2023-06-10T16:35:49;25.30;99.90
2623;DHT22;1321;48.690;9.022;2023-06-10T16:39:02;25.30;99.90
2623;DHT22;1321;48.690;9.022;2023-06-10T16:41:35;25.30;99.90